Time;durP1;ratioP1;P1;durP2;ratioP2;P2;SDS_P1;SDS_P2;PMS_P1;PMS_P2;Temp;Humidity;BMP_temperature;BMP_pressure;BME280_temperature;BME280_humidity;BME280_pressure;Samples;Min_cycle;Max_cycle;Signal;HPM_P1;HPM_P2
2022/02/14 00:00:49;;;;;;;9.90;4.15;;;3.00;53.50;;;;;;5055794;28;20036;-71
2022/02/14 00:03:15;;;;;;;7.70;4.03;;;3.00;53.50;;;;;;5073315;28;20028;-70
2022/02/14 00:05:41;;;;;;;5.65;3.92;;;3.00;53.50;;;;;;5073084;28;20020;-70
2022/02/14 00:08:07;;;;;;;8.23;4.15;;;3.00;53.70;;;;;;5072829;28;20079;-72
2022/02/14 00:10:34;;;;;;;12.07;4.68;;;3.00;53.70;;;;;;5055115;28;20521;-70
2022/02/14 00:12:59;;;;;;;9.00;4.38;;;3.00;53.70;;;;;;5062044;28;20032;-70
2022/02/14 00:15:25;;;;;;;7.35;3.78;;;2.90;53.70;;;;;;5086726;28;20024;-70
2022/02/14 00:17:51;;;;;;;7.68;3.97;;;2.90;53.70;;;;;;5053016;28;20063;-70
2022/02/14 00:20:17;;;;;;;9.05;4.40;;;2.90;53.90;;;;;;5035038;28;20029;-71
2022/02/14 00:22:43;;;;;;;11.90;4.68;;;2.90;53.90;;;;;;5035036;28;20078;-72
2022/02/14 00:25:09;;;;;;;7.75;4.10;;;2.90;54.10;;;;;;5063128;28;20029;-71
2022/02/14 00:27:35;;;;;;;10.00;4.00;;;2.90;54.10;;;;;;5058571;28;20021;-71
2022/02/14 00:30:01;;;;;;;7.53;4.30;;;2.80;54.00;;;;;;5051642;28;20028;-72
2022/02/14 00:32:27;;;;;;;9.50;4.43;;;2.80;54.10;;;;;;5053020;28;20108;-71
2022/02/14 00:34:55;;;;;;;11.30;4.35;;;2.80;54.20;;;;;;5053835;28;20087;-70
2022/02/14 00:37:21;;;;;;;10.60;4.25;;;2.80;54.10;;;;;;5054902;28;20029;-71
2022/02/14 00:39:47;;;;;;;7.95;4.53;;;2.80;54.20;;;;;;5072529;28;20033;-73
2022/02/14 00:42:13;;;;;;;7.95;4.20;;;2.70;54.30;;;;;;5036957;28;20025;-71
2022/02/14 00:44:41;;;;;;;7.68;4.38;;;2.70;54.20;;;;;;5041734;28;20541;-70
2022/02/14 00:47:07;;;;;;;8.48;4.63;;;2.70;54.40;;;;;;5052478;28;20024;-71
2022/02/14 00:49:34;;;;;;;7.32;3.85;;;2.70;54.50;;;;;;5034817;28;20028;-71
2022/02/14 00:52:00;;;;;;;7.40;4.65;;;2.60;54.40;;;;;;5034677;28;20025;-71
2022/02/14 00:54:26;;;;;;;7.82;4.07;;;2.70;54.50;;;;;;5057164;28;20028;-71
2022/02/14 00:56:51;;;;;;;7.07;3.85;;;2.60;55.10;;;;;;5056459;28;20056;-70
2022/02/14 00:59:17;;;;;;;7.00;3.95;;;2.60;54.60;;;;;;5054516;28;20029;-73
2022/02/14 01:01:43;;;;;;;6.80;3.55;;;2.60;54.60;;;;;;5055352;28;20095;-71
2022/02/14 01:04:09;;;;;;;11.63;4.45;;;2.60;54.50;;;;;;5038446;28;20032;-71
2022/02/14 01:06:35;;;;;;;8.13;4.18;;;2.60;54.60;;;;;;5058290;28;20489;-71
2022/02/14 01:09:02;;;;;;;7.47;3.65;;;2.60;54.70;;;;;;5072223;28;20017;-70
2022/02/14 01:11:28;;;;;;;8.80;4.78;;;2.50;54.70;;;;;;5043141;28;20024;-70
2022/02/14 01:13:55;;;;;;;7.35;4.45;;;2.50;54.70;;;;;;5057948;28;20051;-70
2022/02/14 01:16:21;;;;;;;11.73;4.82;;;2.50;54.80;;;;;;5058062;28;20452;-71
2022/02/14 01:18:47;;;;;;;11.52;4.68;;;2.50;54.80;;;;;;5057896;28;20039;-72
2022/02/14 01:21:13;;;;;;;6.45;3.80;;;2.50;54.80;;;;;;5076294;28;20024;-71
2022/02/14 01:23:39;;;;;;;9.63;4.72;;;2.50;54.80;;;;;;5075022;28;20028;-70
2022/02/14 01:26:05;;;;;;;13.15;5.60;;;2.40;54.90;;;;;;5075591;28;20055;-70
2022/02/14 01:28:31;;;;;;;8.77;4.55;;;2.40;54.90;;;;;;5075490;28;20460;-72
2022/02/14 01:30:56;;;;;;;11.82;6.75;;;2.40;54.90;;;;;;5075819;28;20460;-71
2022/02/14 01:33:22;;;;;;;13.65;5.90;;;2.40;55.00;;;;;;5075381;28;20106;-74
2022/02/14 01:35:50;;;;;;;11.43;6.13;;;2.40;55.00;;;;;;5054304;28;20068;-70
2022/02/14 01:38:17;;;;;;;17.02;6.65;;;2.40;55.00;;;;;;5037887;28;20037;-70
2022/02/14 01:40:43;;;;;;;18.85;6.65;;;2.40;55.10;;;;;;5037624;28;20116;-71
2022/02/14 01:43:09;;;;;;;13.20;7.20;;;2.30;55.10;;;;;;5055256;28;20105;-71
2022/02/14 01:45:34;;;;;;;12.48;6.57;;;2.30;55.20;;;;;;5055369;28;20029;-71
2022/02/14 01:48:00;;;;;;;13.00;6.72;;;2.30;55.30;;;;;;5037473;28;20384;-71
2022/02/14 01:50:26;;;;;;;14.27;6.80;;;2.30;55.90;;;;;;5055410;28;20100;-71
2022/02/14 01:52:54;;;;;;;13.45;6.82;;;2.20;55.20;;;;;;5061187;28;20045;-71
2022/02/14 01:55:20;;;;;;;13.73;6.82;;;2.20;55.30;;;;;;5044096;28;20025;-70
2022/02/14 01:57:48;;;;;;;16.08;7.25;;;2.20;55.40;;;;;;5047505;28;20139;-71
2022/02/14 02:00:17;;;;;;;25.42;8.38;;;2.20;55.40;;;;;;5037347;28;20459;-71
2022/02/14 02:02:43;;;;;;;19.15;8.52;;;2.20;55.60;;;;;;5055120;28;20396;-71
2022/02/14 02:05:10;;;;;;;15.52;7.18;;;2.20;55.70;;;;;;5054566;28;20017;-70
2022/02/14 02:07:36;;;;;;;12.23;5.63;;;2.20;55.90;;;;;;5055156;28;20024;-71
2022/02/14 02:10:06;;;;;;;12.85;6.05;;;2.20;55.80;;;;;;5056703;28;20040;-75
2022/02/14 02:12:32;;;;;;;15.35;6.25;;;2.10;55.70;;;;;;5075002;28;20410;-70
2022/02/14 02:15:00;;;;;;;21.90;7.53;;;2.10;55.60;;;;;;5074745;28;20114;-71
2022/02/14 02:17:32;;;;;;;22.35;8.15;;;2.20;55.80;;;;;;5056982;28;20036;-71
2022/02/14 02:19:59;;;;;;;18.45;8.23;;;2.10;55.80;;;;;;5056814;28;20027;-71
2022/02/14 02:22:25;;;;;;;15.65;7.38;;;2.10;55.80;;;;;;5055647;28;20055;-72
2022/02/14 02:24:56;;;;;;;13.98;7.53;;;2.10;55.80;;;;;;5036851;28;20033;-71
2022/02/14 02:27:25;;;;;;;20.58;8.90;;;2.10;55.90;;;;;;5036756;28;20597;-74
2022/02/14 02:30:03;;;;;;;22.77;8.25;;;2.10;56.00;;;;;;5054704;28;20025;-70
2022/02/14 02:32:31;;;;;;;19.38;7.95;;;2.10;56.40;;;;;;5041017;28;20029;-71
2022/02/14 02:34:57;;;;;;;15.13;8.27;;;2.10;56.30;;;;;;5056279;28;20080;-71
2022/02/14 02:37:23;;;;;;;19.40;9.20;;;2.10;56.40;;;;;;5049484;28;20479;-71
2022/02/14 02:39:49;;;;;;;20.88;8.38;;;2.10;56.40;;;;;;5054530;28;20025;-71
2022/02/14 02:42:18;;;;;;;20.38;9.70;;;2.10;56.50;;;;;;5064370;28;20036;-71
2022/02/14 02:44:45;;;;;;;15.80;8.40;;;2.10;56.50;;;;;;5073906;28;20021;-71
2022/02/14 02:47:14;;;;;;;20.70;8.57;;;2.10;56.50;;;;;;5074293;28;20024;-74
2022/02/14 02:49:42;;;;;;;15.18;7.45;;;2.10;56.40;;;;;;5056232;28;20063;-71
2022/02/14 02:52:09;;;;;;;16.35;8.18;;;2.10;56.40;;;;;;5055521;28;20074;-71
2022/02/14 02:54:35;;;;;;;19.90;8.25;;;2.10;56.30;;;;;;5056177;28;20028;-71
2022/02/14 02:57:02;;;;;;;16.98;9.02;;;2.10;56.30;;;;;;5074111;28;20025;-71
2022/02/14 02:59:33;;;;;;;19.25;8.30;;;2.00;56.30;;;;;;5072813;28;20111;-71
2022/02/14 03:02:00;;;;;;;19.63;9.35;;;2.00;56.30;;;;;;5072994;28;20032;-71
2022/02/14 03:04:26;;;;;;;17.58;9.23;;;2.00;56.40;;;;;;5072707;28;20024;-71
2022/02/14 03:06:52;;;;;;;18.38;9.23;;;2.00;56.30;;;;;;5057269;28;20036;-71
2022/02/14 03:09:18;;;;;;;21.67;9.18;;;2.00;56.40;;;;;;5054027;28;20025;-73
2022/02/14 03:11:45;;;;;;;21.70;9.52;;;2.00;56.50;;;;;;5053840;28;20021;-71
2022/02/14 03:14:11;;;;;;;30.10;11.30;;;2.00;56.50;;;;;;5035745;28;20083;-70
2022/02/14 03:16:38;;;;;;;23.08;10.45;;;2.00;56.60;;;;;;5053086;28;20100;-71
2022/02/14 03:19:04;;;;;;;31.35;11.73;;;2.00;56.60;;;;;;5053455;28;20035;-71
2022/02/14 03:21:30;;;;;;;23.45;10.85;;;2.00;56.70;;;;;;5053434;28;20029;-71
2022/02/14 03:23:59;;;;;;;26.33;12.02;;;1.90;56.50;;;;;;5053625;28;20057;-70
2022/02/14 03:26:25;;;;;;;26.73;12.77;;;2.00;56.70;;;;;;5035971;28;20029;-71
2022/02/14 03:28:54;;;;;;;20.73;11.13;;;1.90;56.60;;;;;;5035366;28;20029;-74
2022/02/14 03:31:20;;;;;;;24.80;10.30;;;1.90;56.60;;;;;;5037132;28;20606;-71
2022/02/14 03:33:47;;;;;;;20.48;10.25;;;1.90;56.50;;;;;;5045282;28;20102;-71
2022/02/14 03:36:15;;;;;;;19.92;11.13;;;1.90;57.00;;;;;;5068287;28;20463;-76
2022/02/14 03:38:42;;;;;;;22.65;10.40;;;1.90;56.50;;;;;;5073337;28;20368;-73
2022/02/14 03:41:08;;;;;;;24.15;10.38;;;1.90;56.60;;;;;;5072032;28;20034;-71
2022/02/14 03:43:34;;;;;;;20.92;10.23;;;1.90;56.60;;;;;;5072062;28;20444;-71
2022/02/14 03:46:00;;;;;;;26.38;10.43;;;1.90;56.70;;;;;;5072035;28;20025;-70
2022/02/14 03:48:26;;;;;;;21.98;9.85;;;1.90;56.70;;;;;;5072966;28;20032;-71
2022/02/14 03:50:52;;;;;;;22.00;10.63;;;1.90;56.70;;;;;;5072005;28;20495;-71
2022/02/14 03:53:19;;;;;;;23.85;10.00;;;1.90;56.80;;;;;;5073416;28;20064;-71
2022/02/14 03:55:45;;;;;;;17.88;9.90;;;1.90;57.00;;;;;;5055348;28;20040;-70
2022/02/14 03:58:11;;;;;;;21.23;10.57;;;1.90;57.00;;;;;;5073072;28;20384;-71
2022/02/14 04:00:37;;;;;;;19.55;10.48;;;1.90;57.00;;;;;;5076746;28;20031;-72
2022/02/14 04:03:03;;;;;;;20.27;9.55;;;1.90;56.90;;;;;;5072988;28;20043;-71
2022/02/14 04:05:29;;;;;;;27.02;9.52;;;1.90;57.00;;;;;;5055244;28;20032;-71
2022/02/14 04:07:58;;;;;;;20.38;10.00;;;1.90;57.00;;;;;;5055335;28;20379;-71
2022/02/14 04:10:25;;;;;;;20.50;10.50;;;1.90;57.00;;;;;;5071903;28;20372;-71
2022/02/14 04:12:50;;;;;;;23.45;10.13;;;1.90;57.00;;;;;;5071535;28;20032;-71
2022/02/14 04:15:16;;;;;;;25.52;10.65;;;1.90;57.10;;;;;;5074167;28;20039;-73
2022/02/14 04:17:44;;;;;;;17.33;8.63;;;1.90;57.20;;;;;;5093130;28;20533;-70
2022/02/14 04:20:10;;;;;;;20.05;9.65;;;1.90;57.20;;;;;;5093591;28;20020;-70
2022/02/14 04:22:37;;;;;;;21.90;9.38;;;1.90;57.20;;;;;;5092969;28;20040;-72
2022/02/14 04:25:04;;;;;;;19.02;8.63;;;1.90;57.20;;;;;;5082298;28;20483;-71
2022/02/14 04:27:30;;;;;;;16.33;8.00;;;1.90;57.20;;;;;;5073763;28;20025;-71
2022/02/14 04:29:56;;;;;;;17.77;8.40;;;1.90;57.20;;;;;;5062449;28;20039;-71
2022/02/14 04:32:22;;;;;;;15.40;7.70;;;1.90;57.20;;;;;;5095965;28;20376;-70
2022/02/14 04:34:48;;;;;;;22.33;7.78;;;1.90;57.30;;;;;;5094439;28;20052;-71
2022/02/14 04:37:15;;;;;;;20.60;8.00;;;1.90;57.40;;;;;;5076893;28;20085;-71
2022/02/14 04:39:42;;;;;;;20.00;8.30;;;1.90;57.50;;;;;;5075639;28;20535;-72
2022/02/14 04:42:08;;;;;;;19.17;8.93;;;1.90;57.60;;;;;;5076772;28;20028;-71
2022/02/14 04:44:33;;;;;;;17.70;8.82;;;1.90;57.70;;;;;;5086519;28;20145;-71
2022/02/14 04:46:59;;;;;;;14.75;8.00;;;1.90;57.80;;;;;;5096994;28;20032;-71
2022/02/14 04:49:25;;;;;;;15.02;7.53;;;1.90;57.90;;;;;;5077806;28;20043;-70
2022/02/14 04:51:51;;;;;;;20.25;7.85;;;1.90;57.80;;;;;;5078870;28;20103;-71
2022/02/14 04:54:16;;;;;;;15.68;8.65;;;1.90;57.70;;;;;;5078438;28;20036;-76
2022/02/14 04:56:42;;;;;;;28.17;13.20;;;1.90;57.70;;;;;;5078182;28;20028;-71
2022/02/14 04:59:09;;;;;;;23.83;12.18;;;1.90;57.70;;;;;;5083349;28;20016;-71
2022/02/14 05:01:35;;;;;;;17.55;10.80;;;1.90;57.90;;;;;;5076392;28;20086;-71
2022/02/14 05:04:01;;;;;;;21.40;9.77;;;1.80;57.70;;;;;;5058465;28;20024;-71
2022/02/14 05:06:27;;;;;;;13.88;8.27;;;1.90;57.70;;;;;;5076358;28;20456;-71
2022/02/14 05:08:52;;;;;;;16.65;8.55;;;1.90;57.70;;;;;;5076326;28;20024;-72
2022/02/14 05:11:18;;;;;;;21.45;11.57;;;1.80;57.70;;;;;;5075984;28;20025;-70
2022/02/14 05:13:45;;;;;;;25.05;10.60;;;1.80;57.90;;;;;;5058171;28;20515;-70
2022/02/14 05:16:11;;;;;;;17.85;9.25;;;1.80;58.00;;;;;;5092858;28;20031;-71
2022/02/14 05:18:37;;;;;;;19.02;9.13;;;1.80;57.90;;;;;;5096331;28;20031;-71
2022/02/14 05:21:04;;;;;;;15.05;7.68;;;1.80;57.90;;;;;;5096317;28;20145;-71
2022/02/14 05:23:30;;;;;;;22.23;8.48;;;1.80;57.80;;;;;;5096552;28;20059;-71
2022/02/14 05:25:55;;;;;;;18.15;9.20;;;1.80;57.70;;;;;;5071329;28;20527;-72
2022/02/14 05:28:21;;;;;;;16.88;7.35;;;1.80;57.80;;;;;;5075851;28;20131;-73
2022/02/14 05:30:47;;;;;;;17.77;7.78;;;1.80;57.90;;;;;;5057796;28;20025;-71
2022/02/14 05:33:13;;;;;;;13.82;7.40;;;1.80;57.90;;;;;;5057611;28;20041;-71
2022/02/14 05:35:40;;;;;;;13.43;7.18;;;1.80;57.80;;;;;;5075383;28;20032;-71
2022/02/14 05:38:08;;;;;;;18.10;8.80;;;1.80;57.80;;;;;;5057664;28;20025;-73
2022/02/14 05:40:33;;;;;;;18.48;7.60;;;1.80;57.90;;;;;;5075430;28;20029;-74
2022/02/14 05:42:59;;;;;;;17.45;8.02;;;1.80;57.90;;;;;;5057616;28;20086;-71
2022/02/14 05:45:25;;;;;;;18.88;8.25;;;1.80;58.00;;;;;;5075431;28;20020;-71
2022/02/14 05:47:51;;;;;;;18.65;7.43;;;1.80;58.10;;;;;;5074162;28;20028;-71
2022/02/14 05:50:16;;;;;;;14.07;7.43;;;1.80;58.20;;;;;;5075476;28;20095;-71
2022/02/14 05:52:44;;;;;;;11.60;6.82;;;1.80;58.20;;;;;;5057087;28;20029;-71
2022/02/14 05:55:10;;;;;;;11.35;6.85;;;1.80;58.10;;;;;;5075428;28;20029;-73
2022/02/14 05:57:36;;;;;;;11.90;6.07;;;1.90;58.10;;;;;;5057601;28;20028;-71
2022/02/14 06:00:02;;;;;;;11.07;5.82;;;1.90;57.90;;;;;;5075132;28;20379;-70
2022/02/14 06:02:29;;;;;;;10.45;5.68;;;1.90;57.80;;;;;;5075277;28;20066;-71
2022/02/14 06:04:54;;;;;;;15.10;6.60;;;1.90;57.80;;;;;;5075129;28;20107;-71
2022/02/14 06:07:20;;;;;;;15.38;6.85;;;1.80;57.70;;;;;;5057187;28;20029;-71
2022/02/14 06:09:46;;;;;;;16.58;7.35;;;1.90;57.70;;;;;;5075510;28;20024;-71
2022/02/14 06:12:12;;;;;;;10.57;6.28;;;1.90;57.80;;;;;;5074986;28;20372;-70
2022/02/14 06:14:38;;;;;;;14.45;5.75;;;1.80;57.70;;;;;;5074518;28;20103;-72
2022/02/14 06:17:04;;;;;;;14.00;6.75;;;1.80;57.70;;;;;;5074885;28;20024;-71
2022/02/14 06:19:29;;;;;;;16.48;6.18;;;1.80;57.70;;;;;;5074875;28;20082;-71
2022/02/14 06:21:55;;;;;;;9.98;5.93;;;1.80;57.70;;;;;;5074775;28;20103;-71
2022/02/14 06:24:21;;;;;;;11.38;6.13;;;1.80;57.70;;;;;;5058731;28;20032;-71
2022/02/14 06:26:47;;;;;;;16.02;7.18;;;1.80;57.70;;;;;;5095036;28;20527;-71
2022/02/14 06:29:13;;;;;;;11.65;6.57;;;1.80;57.70;;;;;;5060732;28;20033;-72
2022/02/14 06:31:38;;;;;;;10.40;6.43;;;1.80;57.70;;;;;;5074716;28;20115;-72
2022/02/14 06:34:04;;;;;;;11.52;6.10;;;1.80;57.80;;;;;;5074236;28;20110;-71
2022/02/14 06:36:31;;;;;;;12.65;5.88;;;1.80;57.70;;;;;;5074263;28;20017;-71
2022/02/14 06:38:58;;;;;;;12.02;5.53;;;1.90;57.90;;;;;;5056758;28;20028;-70
2022/02/14 06:41:26;;;;;;;16.00;6.53;;;1.90;57.80;;;;;;5074479;28;20028;-71
2022/02/14 06:43:55;;;;;;;14.35;7.18;;;1.90;57.80;;;;;;5074254;28;20028;-71
2022/02/14 06:46:22;;;;;;;13.27;6.15;;;1.90;57.80;;;;;;5056479;28;20017;-71
2022/02/14 06:48:49;;;;;;;16.98;7.75;;;1.90;57.90;;;;;;5056390;28;20020;-72
2022/02/14 06:51:17;;;;;;;20.10;7.65;;;2.00;58.00;;;;;;5091701;28;20081;-72
2022/02/14 06:53:44;;;;;;;14.10;7.38;;;2.00;58.20;;;;;;5063944;28;20039;-71
2022/02/14 06:56:10;;;;;;;16.70;7.53;;;2.10;58.40;;;;;;5073823;28;20467;-71
2022/02/14 06:58:37;;;;;;;17.63;6.95;;;2.20;58.60;;;;;;5074025;28;20025;-71
2022/02/14 07:01:04;;;;;;;14.05;7.70;;;2.20;58.70;;;;;;5056463;28;20372;-71
2022/02/14 07:03:30;;;;;;;14.48;8.70;;;2.30;58.80;;;;;;5085681;28;20082;-71
2022/02/14 07:05:57;;;;;;;14.13;6.93;;;2.30;58.80;;;;;;5058631;28;20041;-70
2022/02/14 07:08:23;;;;;;;16.33;6.93;;;2.40;58.80;;;;;;5073957;28;20027;-71
2022/02/14 07:10:49;;;;;;;12.88;7.20;;;2.50;58.80;;;;;;5059820;28;20514;-71
2022/02/14 07:13:15;;;;;;;16.23;7.43;;;2.60;58.90;;;;;;5080929;28;20020;-72
2022/02/14 07:15:41;;;;;;;17.73;8.32;;;2.60;59.00;;;;;;5073510;28;20060;-71
2022/02/14 07:18:12;;;;;;;17.85;7.90;;;2.70;59.10;;;;;;5073814;28;20028;-71
2022/02/14 07:20:38;;;;;;;14.52;7.10;;;2.80;59.20;;;;;;5055813;28;20021;-73
2022/02/14 07:23:05;;;;;;;15.65;7.82;;;2.80;59.20;;;;;;5055819;28;20468;-71
2022/02/14 07:25:31;;;;;;;15.25;7.60;;;2.90;59.20;;;;;;5073452;28;20094;-71
2022/02/14 07:27:57;;;;;;;16.45;8.10;;;3.00;59.20;;;;;;5059935;28;20411;-71
2022/02/14 07:30:23;;;;;;;26.10;11.50;;;3.10;59.20;;;;;;5092203;28;20027;-71
2022/02/14 07:32:50;;;;;;;19.13;8.02;;;3.10;59.20;;;;;;5091889;28;20035;-72
2022/02/14 07:35:16;;;;;;;12.20;6.68;;;3.20;59.30;;;;;;5093320;28;20051;-72
2022/02/14 07:37:44;;;;;;;17.45;8.77;;;3.30;59.20;;;;;;5094059;28;20107;-71
2022/02/14 07:40:14;;;;;;;20.48;8.43;;;3.30;59.10;;;;;;5075011;28;20119;-71
2022/02/14 07:42:41;;;;;;;16.92;8.13;;;3.40;59.20;;;;;;5093401;28;20111;-71
2022/02/14 07:45:07;;;;;;;11.27;6.57;;;3.50;59.20;;;;;;5075405;28;20052;-71
2022/02/14 07:47:33;;;;;;;18.40;7.50;;;3.60;59.20;;;;;;5083290;28;20051;-71
2022/02/14 07:49:59;;;;;;;16.75;7.45;;;3.60;59.10;;;;;;5055391;28;20028;-71
2022/02/14 07:52:25;;;;;;;19.10;7.82;;;3.70;59.10;;;;;;5055218;28;20456;-71
2022/02/14 07:54:52;;;;;;;21.27;8.25;;;3.80;59.00;;;;;;5055284;28;20443;-71
2022/02/14 07:57:18;;;;;;;16.15;7.53;;;3.90;58.90;;;;;;5073024;28;20025;-71
2022/02/14 07:59:44;;;;;;;15.07;7.47;;;3.90;58.80;;;;;;5063949;28;20144;-72
2022/02/14 08:02:10;;;;;;;16.73;8.32;;;4.00;58.60;;;;;;5061483;28;20059;-71
2022/02/14 08:04:36;;;;;;;18.33;7.70;;;4.10;58.50;;;;;;5072779;28;20376;-71
2022/02/14 08:07:04;;;;;;;16.02;8.13;;;4.10;58.40;;;;;;5073462;28;20034;-73
2022/02/14 08:09:30;;;;;;;26.77;10.23;;;4.20;58.30;;;;;;5073319;28;20094;-71
2022/02/14 08:11:56;;;;;;;17.38;8.57;;;4.30;58.30;;;;;;5055328;28;20392;-71
2022/02/14 08:14:22;;;;;;;17.70;7.63;;;4.40;58.30;;;;;;5055084;28;20033;-71
2022/02/14 08:16:48;;;;;;;20.58;7.97;;;4.40;58.10;;;;;;5073105;28;20024;-72
2022/02/14 08:19:14;;;;;;;17.15;7.88;;;4.50;58.00;;;;;;5070323;28;20028;-72
2022/02/14 08:21:40;;;;;;;16.23;8.20;;;4.60;57.80;;;;;;5092571;28;20491;-71
2022/02/14 08:24:06;;;;;;;15.07;6.78;;;4.60;57.60;;;;;;5075021;28;20028;-71
2022/02/14 08:26:33;;;;;;;12.38;6.80;;;4.70;57.60;;;;;;5071740;28;20035;-71
2022/02/14 08:29:00;;;;;;;14.50;7.38;;;4.70;57.50;;;;;;5074411;28;20048;-71
2022/02/14 08:31:26;;;;;;;19.17;8.02;;;4.80;57.50;;;;;;5074587;28;20021;-71
2022/02/14 08:33:52;;;;;;;20.30;7.68;;;4.90;57.40;;;;;;5093047;28;20063;-71
2022/02/14 08:36:18;;;;;;;20.60;7.97;;;5.00;57.20;;;;;;5092790;28;20031;-71
2022/02/14 08:38:44;;;;;;;24.13;8.38;;;5.00;57.10;;;;;;5067100;28;20032;-71
2022/02/14 08:41:10;;;;;;;21.02;8.98;;;5.10;57.00;;;;;;5054807;28;20131;-71
2022/02/14 08:43:35;;;;;;;22.20;10.02;;;5.20;56.90;;;;;;5061212;28;20036;-71
2022/02/14 08:46:01;;;;;;;32.63;11.18;;;5.20;56.60;;;;;;5074903;28;20072;-71
2022/02/14 08:48:27;;;;;;;32.55;11.38;;;5.30;56.40;;;;;;5075856;28;20040;-71
2022/02/14 08:50:53;;;;;;;25.15;11.35;;;5.40;56.00;;;;;;5071422;28;20024;-72
2022/02/14 08:53:21;;;;;;;26.83;11.73;;;5.50;55.90;;;;;;5071802;28;20039;-72
2022/02/14 08:55:48;;;;;;;32.80;12.85;;;5.60;55.80;;;;;;5091572;28;20108;-72
2022/02/14 08:58:14;;;;;;;34.63;13.13;;;5.60;55.60;;;;;;5072112;28;20171;-72
2022/02/14 09:00:40;;;;;;;40.08;18.17;;;5.70;55.40;;;;;;5074307;28;20463;-72
2022/02/14 09:03:06;;;;;;;52.13;17.73;;;5.80;55.10;;;;;;5092576;28;20032;-73
2022/02/14 09:05:32;;;;;;;44.97;16.00;;;5.90;54.40;;;;;;5092496;28;20038;-72
2022/02/14 09:07:57;;;;;;;42.92;13.93;;;5.90;53.80;;;;;;5092316;28;20024;-72
2022/02/14 09:10:24;;;;;;;45.22;15.65;;;6.00;53.70;;;;;;5054431;28;20029;-72
2022/02/14 09:12:50;;;;;;;35.58;12.95;;;6.10;53.60;;;;;;5072440;28;20429;-72
2022/02/14 09:15:16;;;;;;;36.95;13.30;;;6.20;53.50;;;;;;5056273;28;20038;-72
2022/02/14 09:17:43;;;;;;;28.98;11.82;;;6.20;53.40;;;;;;5076139;28;20063;-74
2022/02/14 09:20:10;;;;;;;32.08;12.98;;;6.30;53.40;;;;;;5074855;28;20024;-71
2022/02/14 09:22:36;;;;;;;30.85;10.90;;;6.40;53.10;;;;;;5074123;28;20031;-72
2022/02/14 09:25:02;;;;;;;39.30;13.43;;;6.50;53.20;;;;;;5091385;28;20078;-72
2022/02/14 09:27:29;;;;;;;23.65;10.93;;;6.50;52.90;;;;;;5095766;28;20020;-72
2022/02/14 09:29:54;;;;;;;32.80;12.27;;;6.60;52.60;;;;;;5077738;28;20036;-72
2022/02/14 09:32:21;;;;;;;29.25;11.13;;;6.70;52.30;;;;;;5057817;28;20024;-71
2022/02/14 09:34:47;;;;;;;21.92;10.82;;;6.80;51.80;;;;;;5057609;28;20101;-72
2022/02/14 09:37:15;;;;;;;31.17;11.27;;;6.80;51.70;;;;;;5062719;28;20025;-73
2022/02/14 09:39:41;;;;;;;22.63;11.45;;;6.90;51.30;;;;;;5076150;28;20052;-72
2022/02/14 09:42:08;;;;;;;22.80;10.18;;;7.00;51.10;;;;;;5075681;28;20032;-72
2022/02/14 09:44:34;;;;;;;29.20;11.90;;;7.00;50.80;;;;;;5057440;28;20142;-72
2022/02/14 09:47:02;;;;;;;23.95;11.38;;;7.10;50.70;;;;;;5058083;28;20052;-72
2022/02/14 09:49:29;;;;;;;23.75;11.40;;;7.10;50.50;;;;;;5072741;28;20040;-72
2022/02/14 09:51:58;;;;;;;41.42;9.73;;;7.20;50.20;;;;;;5075547;28;20024;-72
2022/02/14 09:54:25;;;;;;;22.95;9.55;;;7.30;50.10;;;;;;5075114;28;20218;-72
2022/02/14 09:56:51;;;;;;;15.48;8.73;;;7.30;50.10;;;;;;5054415;28;20025;-71
2022/02/14 09:59:18;;;;;;;18.08;9.20;;;7.40;49.80;;;;;;5049483;28;20060;-72
2022/02/14 10:01:45;;;;;;;21.67;8.52;;;7.40;49.40;;;;;;5083796;28;20039;-72
2022/02/14 10:04:11;;;;;;;18.20;8.52;;;7.50;49.30;;;;;;5095790;28;20024;-71
2022/02/14 10:06:40;;;;;;;22.90;9.85;;;7.50;49.40;;;;;;5076174;28;20426;-72
2022/02/14 10:09:11;;;;;;;19.58;10.02;;;7.60;48.90;;;;;;5056879;28;20024;-72
2022/02/14 10:11:42;;;;;;;25.27;11.13;;;7.60;48.60;;;;;;5090537;28;20490;-72
2022/02/14 10:14:19;;;;;;;17.67;9.55;;;7.70;48.60;;;;;;5095271;28;20118;-72
2022/02/14 10:17:07;;;;;;;30.50;11.02;;;7.80;48.60;;;;;;5076807;28;20484;-72
2022/02/14 10:19:39;;;;;;;14.70;8.05;;;7.80;48.40;;;;;;5077033;28;20119;-71
2022/02/14 10:22:09;;;;;;;17.08;7.55;;;7.90;48.30;;;;;;5090850;28;20032;-71
2022/02/14 10:24:39;;;;;;;15.50;7.63;;;8.00;48.30;;;;;;5078196;28;20093;-71
2022/02/14 10:27:07;;;;;;;13.98;7.00;;;8.00;48.30;;;;;;5072349;28;20024;-71
2022/02/14 10:29:33;;;;;;;12.57;5.60;;;8.10;48.30;;;;;;5088209;28;20024;-69
2022/02/14 10:32:02;;;;;;;12.57;4.82;;;8.10;47.50;;;;;;5086418;28;20040;-75
2022/02/14 10:34:43;;;;;;;13.55;5.15;;;8.20;46.50;;;;;;5074668;28;20055;-74
2022/02/14 10:37:14;;;;;;;9.85;4.75;;;8.20;46.50;;;;;;5075262;28;20028;-74
2022/02/14 10:39:42;;;;;;;10.23;4.22;;;8.30;46.80;;;;;;5094143;28;20020;-74
2022/02/14 10:42:12;;;;;;;14.85;4.22;;;8.40;46.50;;;;;;5069148;28;20032;-74
2022/02/14 10:47:35;;;;;;;13.35;4.85;;;8.50;45.50;;;;;;5080187;28;20545;-75
2022/02/14 10:50:06;;;;;;;16.67;4.78;;;8.60;46.20;;;;;;5065293;28;20020;-78
2022/02/14 10:52:41;;;;;;;13.10;5.07;;;8.60;45.40;;;;;;5091608;28;20115;-77
2022/02/14 10:55:17;;;;;;;12.68;5.13;;;8.70;45.20;;;;;;5093233;28;20035;-76
2022/02/14 10:57:44;;;;;;;9.77;3.30;;;8.70;45.20;;;;;;5093381;28;20028;-77
2022/02/14 11:00:22;;;;;;;11.25;4.13;;;8.80;44.80;;;;;;5093831;28;20024;-74
2022/02/14 11:02:51;;;;;;;9.93;4.57;;;8.80;45.00;;;;;;5064246;28;20642;-71
2022/02/14 11:05:19;;;;;;;14.93;5.05;;;8.90;44.60;;;;;;5056696;28;20028;-75
2022/02/14 11:07:46;;;;;;;10.25;4.32;;;9.00;44.10;;;;;;5074210;28;20073;-72
2022/02/14 11:10:15;;;;;;;6.13;4.05;;;9.10;44.10;;;;;;5073345;28;20067;-71
2022/02/14 11:12:48;;;;;;;7.53;4.10;;;9.10;44.00;;;;;;5092133;28;20059;-72
2022/02/14 11:15:15;;;;;;;6.53;3.70;;;9.20;43.70;;;;;;5073472;28;20029;-70
2022/02/14 11:17:46;;;;;;;8.13;4.28;;;9.20;44.00;;;;;;5084327;28;20443;-70
2022/02/14 11:20:13;;;;;;;14.48;5.18;;;9.30;43.50;;;;;;5073639;28;20028;-70
2022/02/14 11:22:43;;;;;;;14.13;6.18;;;9.40;43.40;;;;;;5061784;28;20032;-71
2022/02/14 11:25:09;;;;;;;8.80;5.00;;;9.40;43.40;;;;;;5072218;28;20066;-73
2022/02/14 11:28:28;;;;;;;11.68;5.72;;;9.50;43.20;;;;;;5063985;28;20052;-72
2022/02/14 11:31:17;;;;;;;10.73;4.60;;;9.50;43.10;;;;;;5005036;28;20395;-71
2022/02/14 11:33:55;;;;;;;7.53;4.00;;;9.60;42.90;;;;;;5061758;28;20063;-75
2022/02/14 11:36:23;;;;;;;9.13;4.28;;;9.60;42.70;;;;;;5055551;28;20021;-74
2022/02/14 11:38:55;;;;;;;8.05;3.45;;;9.70;42.50;;;;;;5070483;28;20123;-74
2022/02/14 11:41:32;;;;;;;6.55;3.90;;;9.70;42.70;;;;;;5055355;28;20024;-74
2022/02/14 11:44:16;;;;;;;5.28;3.13;;;9.70;41.80;;;;;;5069603;28;20476;-74
2022/02/14 11:46:54;;;;;;;8.03;3.53;;;9.80;42.10;;;;;;5073235;28;20032;-71
2022/02/14 11:49:46;;;;;;;6.60;3.63;;;9.90;42.20;;;;;;5073173;28;20052;-70
2022/02/14 11:52:29;;;;;;;10.73;3.90;;;9.90;42.20;;;;;;5074333;28;20032;-72
2022/02/14 11:54:56;;;;;;;8.38;4.30;;;9.90;41.90;;;;;;5088682;28;20123;-71
2022/02/14 11:57:33;;;;;;;6.68;4.03;;;10.00;41.90;;;;;;5073426;28;20024;-71
2022/02/14 12:00:15;;;;;;;8.40;4.65;;;10.00;42.00;;;;;;5055269;28;20536;-73
2022/02/14 12:03:02;;;;;;;10.02;5.53;;;10.10;41.40;;;;;;5061060;28;20488;-71
2022/02/14 12:05:40;;;;;;;10.88;5.80;;;10.10;41.70;;;;;;5050747;28;20067;-76
2022/02/14 12:08:06;;;;;;;12.35;6.47;;;10.20;42.00;;;;;;5051924;28;20433;-76
2022/02/14 12:10:46;;;;;;;10.20;5.40;;;10.20;42.30;;;;;;5073582;28;20056;-74
2022/02/14 12:13:15;;;;;;;18.10;6.68;;;10.30;42.30;;;;;;5078993;28;20028;-71
2022/02/14 12:21:13;;;;;;;12.77;6.65;;;10.40;41.80;;;;;;5073055;28;20135;-70
2022/02/14 12:23:45;;;;;;;10.73;6.50;;;10.50;41.90;;;;;;5069773;28;20447;-74
2022/02/14 12:26:15;;;;;;;17.17;6.80;;;10.60;41.60;;;;;;5072086;28;20056;-74
2022/02/14 12:28:43;;;;;;;16.45;7.40;;;10.60;41.40;;;;;;5081381;28;20024;-74
2022/02/14 12:31:10;;;;;;;21.67;8.90;;;10.60;41.30;;;;;;5078544;28;20095;-74
2022/02/14 12:33:37;;;;;;;17.77;7.90;;;10.70;40.40;;;;;;5072964;28;20055;-73
2022/02/14 12:36:08;;;;;;;17.27;7.65;;;10.70;40.10;;;;;;5068165;28;20036;-74
2022/02/14 12:38:39;;;;;;;12.35;7.15;;;10.80;40.50;;;;;;5076193;28;20483;-75
2022/02/14 12:41:08;;;;;;;18.40;7.47;;;10.90;40.50;;;;;;5092853;28;20364;-74
2022/02/14 12:43:46;;;;;;;34.25;8.15;;;10.90;40.70;;;;;;5072802;28;20067;-73
2022/02/14 12:46:18;;;;;;;15.82;6.18;;;11.00;40.60;;;;;;5090408;28;20036;-73
2022/02/14 12:48:49;;;;;;;9.75;5.10;;;11.10;40.60;;;;;;5055510;28;20021;-74
2022/02/14 12:51:28;;;;;;;11.32;5.97;;;11.10;40.40;;;;;;5077521;28;20035;-72
2022/02/14 12:53:57;;;;;;;15.07;6.15;;;11.20;40.30;;;;;;5071223;28;20036;-74
2022/02/14 12:56:31;;;;;;;18.83;5.90;;;11.30;39.80;;;;;;5087957;28;20043;-68